Powersville, Georgia
Current Conditions -  °F | °C
As of 11:53 AM on Friday 24 Oct 2014 (Local Time) from KMCN Reporting Station
Clear Clear  
Wind Chill: 20°   Ceiling: Unl
Heat Index: 20°   Visibility: 10mi
Dew Point:   Wind: 3mph
Humidity: 47%   Direction: 40°NE
Pressure: 30.07"   Gusts: NA
Location:  32.6425°N, 83.775°W
Report Text: KMCN 241553Z 04003KT 10SM CLR 20/08 A3007 RMK AO2 SLP181 T02000083 $
Loading
Personal Weather Stations






























Interactive Weather Map
Tropical Storm Tracking
New forecast layout! Learn more

10-Day Weather Forecast

Advertisements
Track Severe Weather on mobile